sensor_id;sensor_type;location;lat;lon;timestamp;P1;durP1;ratioP1;P2;durP2;ratioP2
7128;SDS011;3606;52.930;8.644;2023-03-12T00:01:15;7.03;;;3.03;;
7128;SDS011;3606;52.930;8.644;2023-03-12T00:03:43;3.20;;;2.50;;
7128;SDS011;3606;52.930;8.644;2023-03-12T00:06:09;6.03;;;3.00;;
7128;SDS011;3606;52.930;8.644;2023-03-12T00:08:35;6.37;;;3.03;;
7128;SDS011;3606;52.930;8.644;2023-03-12T00:11:04;7.20;;;3.20;;
7128;SDS011;3606;52.930;8.644;2023-03-12T00:13:34;4.13;;;3.10;;
7128;SDS011;3606;52.930;8.644;2023-03-12T00:16:05;4.73;;;3.17;;
7128;SDS011;3606;52.930;8.644;2023-03-12T00:18:38;4.47;;;3.07;;
7128;SDS011;3606;52.930;8.644;2023-03-12T00:21:05;3.27;;;2.80;;
7128;SDS011;3606;52.930;8.644;2023-03-12T00:23:32;4.97;;;3.03;;
7128;SDS011;3606;52.930;8.644;2023-03-12T00:25:59;5.57;;;2.90;;
7128;SDS011;3606;52.930;8.644;2023-03-12T00:28:29;3.10;;;2.80;;
7128;SDS011;3606;52.930;8.644;2023-03-12T00:30:55;4.63;;;3.03;;
7128;SDS011;3606;52.930;8.644;2023-03-12T00:33:22;8.03;;;2.87;;
7128;SDS011;3606;52.930;8.644;2023-03-12T00:35:49;3.83;;;2.87;;
7128;SDS011;3606;52.930;8.644;2023-03-12T00:38:15;5.70;;;3.10;;
7128;SDS011;3606;52.930;8.644;2023-03-12T00:40:41;4.67;;;3.13;;
7128;SDS011;3606;52.930;8.644;2023-03-12T00:43:06;3.07;;;2.77;;
7128;SDS011;3606;52.930;8.644;2023-03-12T00:45:32;2.73;;;2.43;;
7128;SDS011;3606;52.930;8.644;2023-03-12T00:47:57;3.97;;;2.47;;
7128;SDS011;3606;52.930;8.644;2023-03-12T00:50:23;3.00;;;2.47;;
7128;SDS011;3606;52.930;8.644;2023-03-12T00:52:49;4.20;;;3.30;;
7128;SDS011;3606;52.930;8.644;2023-03-12T00:55:15;7.10;;;3.43;;
7128;SDS011;3606;52.930;8.644;2023-03-12T00:57:41;6.70;;;3.70;;
7128;SDS011;3606;52.930;8.644;2023-03-12T01:00:07;5.47;;;3.30;;
7128;SDS011;3606;52.930;8.644;2023-03-12T01:02:35;3.97;;;2.83;;
7128;SDS011;3606;52.930;8.644;2023-03-12T01:05:07;4.30;;;3.20;;
7128;SDS011;3606;52.930;8.644;2023-03-12T01:07:34;4.40;;;3.10;;
7128;SDS011;3606;52.930;8.644;2023-03-12T01:10:00;4.63;;;3.10;;
7128;SDS011;3606;52.930;8.644;2023-03-12T01:12:26;6.33;;;3.07;;
7128;SDS011;3606;52.930;8.644;2023-03-12T01:14:52;3.60;;;3.07;;
7128;SDS011;3606;52.930;8.644;2023-03-12T01:17:17;7.10;;;3.33;;
7128;SDS011;3606;52.930;8.644;2023-03-12T01:19:43;6.33;;;3.27;;
7128;SDS011;3606;52.930;8.644;2023-03-12T01:22:08;4.97;;;3.10;;
7128;SDS011;3606;52.930;8.644;2023-03-12T01:24:34;6.80;;;2.97;;
7128;SDS011;3606;52.930;8.644;2023-03-12T01:27:00;3.87;;;2.83;;
7128;SDS011;3606;52.930;8.644;2023-03-12T01:29:26;3.53;;;3.20;;
7128;SDS011;3606;52.930;8.644;2023-03-12T01:31:51;3.17;;;2.87;;
7128;SDS011;3606;52.930;8.644;2023-03-12T01:34:17;3.33;;;2.87;;
7128;SDS011;3606;52.930;8.644;2023-03-12T01:36:43;4.53;;;2.93;;
7128;SDS011;3606;52.930;8.644;2023-03-12T01:39:09;4.13;;;2.80;;
7128;SDS011;3606;52.930;8.644;2023-03-12T01:41:35;6.13;;;3.17;;
7128;SDS011;3606;52.930;8.644;2023-03-12T01:44:01;9.43;;;3.60;;
7128;SDS011;3606;52.930;8.644;2023-03-12T01:49:04;4.20;;;3.07;;
7128;SDS011;3606;52.930;8.644;2023-03-12T01:51:50;5.47;;;3.47;;
7128;SDS011;3606;52.930;8.644;2023-03-12T01:54:22;4.40;;;3.33;;
7128;SDS011;3606;52.930;8.644;2023-03-12T01:57:08;4.10;;;3.40;;
7128;SDS011;3606;52.930;8.644;2023-03-12T01:59:41;5.10;;;2.70;;
7128;SDS011;3606;52.930;8.644;2023-03-12T02:02:13;3.50;;;2.83;;
7128;SDS011;3606;52.930;8.644;2023-03-12T02:04:40;4.03;;;2.80;;
7128;SDS011;3606;52.930;8.644;2023-03-12T02:07:08;5.67;;;2.93;;
7128;SDS011;3606;52.930;8.644;2023-03-12T02:09:38;3.20;;;2.67;;
7128;SDS011;3606;52.930;8.644;2023-03-12T02:12:06;5.13;;;3.10;;
7128;SDS011;3606;52.930;8.644;2023-03-12T02:14:32;4.83;;;2.67;;
7128;SDS011;3606;52.930;8.644;2023-03-12T02:16:58;4.07;;;2.67;;
7128;SDS011;3606;52.930;8.644;2023-03-12T02:22:48;3.90;;;2.70;;
7128;SDS011;3606;52.930;8.644;2023-03-12T02:27:59;5.40;;;3.20;;
7128;SDS011;3606;52.930;8.644;2023-03-12T02:30:27;3.63;;;3.27;;
7128;SDS011;3606;52.930;8.644;2023-03-12T02:32:54;4.63;;;3.03;;
7128;SDS011;3606;52.930;8.644;2023-03-12T02:35:22;4.33;;;3.23;;
7128;SDS011;3606;52.930;8.644;2023-03-12T02:37:51;8.90;;;3.63;;
7128;SDS011;3606;52.930;8.644;2023-03-12T02:40:23;8.07;;;4.03;;
7128;SDS011;3606;52.930;8.644;2023-03-12T02:42:56;4.43;;;3.20;;
7128;SDS011;3606;52.930;8.644;2023-03-12T02:45:22;3.40;;;2.90;;
7128;SDS011;3606;52.930;8.644;2023-03-12T02:47:49;5.80;;;3.90;;
7128;SDS011;3606;52.930;8.644;2023-03-12T02:50:15;3.77;;;3.03;;
7128;SDS011;3606;52.930;8.644;2023-03-12T02:52:41;4.70;;;3.47;;
7128;SDS011;3606;52.930;8.644;2023-03-12T02:55:06;4.63;;;3.27;;
7128;SDS011;3606;52.930;8.644;2023-03-12T02:57:32;4.03;;;3.13;;
7128;SDS011;3606;52.930;8.644;2023-03-12T03:00:02;4.30;;;3.27;;
7128;SDS011;3606;52.930;8.644;2023-03-12T03:02:32;5.67;;;3.63;;
7128;SDS011;3606;52.930;8.644;2023-03-12T03:04:58;4.37;;;3.20;;
7128;SDS011;3606;52.930;8.644;2023-03-12T03:07:24;3.67;;;2.90;;
7128;SDS011;3606;52.930;8.644;2023-03-12T03:09:49;4.20;;;3.40;;
7128;SDS011;3606;52.930;8.644;2023-03-12T03:12:15;6.20;;;3.27;;
7128;SDS011;3606;52.930;8.644;2023-03-12T03:14:40;3.93;;;3.17;;
7128;SDS011;3606;52.930;8.644;2023-03-12T03:17:06;5.20;;;3.63;;
7128;SDS011;3606;52.930;8.644;2023-03-12T03:19:32;3.57;;;3.03;;
7128;SDS011;3606;52.930;8.644;2023-03-12T03:21:57;3.33;;;3.00;;
7128;SDS011;3606;52.930;8.644;2023-03-12T03:24:23;5.40;;;3.47;;
7128;SDS011;3606;52.930;8.644;2023-03-12T03:26:48;3.33;;;2.90;;
7128;SDS011;3606;52.930;8.644;2023-03-12T03:29:14;7.27;;;3.17;;
7128;SDS011;3606;52.930;8.644;2023-03-12T03:31:40;6.00;;;3.20;;
7128;SDS011;3606;52.930;8.644;2023-03-12T03:34:06;3.60;;;2.90;;
7128;SDS011;3606;52.930;8.644;2023-03-12T03:36:32;5.97;;;3.40;;
7128;SDS011;3606;52.930;8.644;2023-03-12T03:38:58;7.13;;;2.93;;
7128;SDS011;3606;52.930;8.644;2023-03-12T03:41:23;3.57;;;3.03;;
7128;SDS011;3606;52.930;8.644;2023-03-12T03:43:50;3.93;;;3.30;;
7128;SDS011;3606;52.930;8.644;2023-03-12T03:46:16;9.07;;;3.63;;
7128;SDS011;3606;52.930;8.644;2023-03-12T03:48:42;10.63;;;3.60;;
7128;SDS011;3606;52.930;8.644;2023-03-12T03:51:08;4.47;;;3.37;;
7128;SDS011;3606;52.930;8.644;2023-03-12T03:53:34;10.63;;;4.03;;
7128;SDS011;3606;52.930;8.644;2023-03-12T03:56:04;4.93;;;3.60;;
7128;SDS011;3606;52.930;8.644;2023-03-12T03:58:34;8.37;;;3.60;;
7128;SDS011;3606;52.930;8.644;2023-03-12T04:01:00;4.87;;;3.43;;
7128;SDS011;3606;52.930;8.644;2023-03-12T04:03:25;4.10;;;3.70;;
7128;SDS011;3606;52.930;8.644;2023-03-12T04:05:55;6.40;;;3.80;;
7128;SDS011;3606;52.930;8.644;2023-03-12T04:08:22;6.83;;;3.10;;
7128;SDS011;3606;52.930;8.644;2023-03-12T04:10:48;3.43;;;3.13;;
7128;SDS011;3606;52.930;8.644;2023-03-12T04:13:13;5.53;;;3.33;;
7128;SDS011;3606;52.930;8.644;2023-03-12T04:15:44;4.93;;;3.67;;
7128;SDS011;3606;52.930;8.644;2023-03-12T04:18:13;3.60;;;3.17;;
7128;SDS011;3606;52.930;8.644;2023-03-12T04:20:39;4.60;;;3.43;;
7128;SDS011;3606;52.930;8.644;2023-03-12T04:23:05;4.30;;;3.40;;
7128;SDS011;3606;52.930;8.644;2023-03-12T04:25:31;5.80;;;3.40;;
7128;SDS011;3606;52.930;8.644;2023-03-12T04:27:56;4.40;;;3.50;;
7128;SDS011;3606;52.930;8.644;2023-03-12T04:30:22;6.00;;;3.20;;
7128;SDS011;3606;52.930;8.644;2023-03-12T04:32:48;4.83;;;3.03;;
7128;SDS011;3606;52.930;8.644;2023-03-12T04:35:13;6.80;;;3.57;;
7128;SDS011;3606;52.930;8.644;2023-03-12T04:37:39;3.87;;;3.43;;
7128;SDS011;3606;52.930;8.644;2023-03-12T04:40:04;4.03;;;3.13;;
7128;SDS011;3606;52.930;8.644;2023-03-12T04:42:34;4.67;;;3.73;;
7128;SDS011;3606;52.930;8.644;2023-03-12T04:45:00;3.47;;;3.13;;
7128;SDS011;3606;52.930;8.644;2023-03-12T04:47:28;8.20;;;3.40;;
7128;SDS011;3606;52.930;8.644;2023-03-12T04:49:55;6.60;;;4.07;;
7128;SDS011;3606;52.930;8.644;2023-03-12T04:52:20;4.50;;;3.40;;
7128;SDS011;3606;52.930;8.644;2023-03-12T04:54:46;5.53;;;4.27;;
7128;SDS011;3606;52.930;8.644;2023-03-12T04:57:12;5.63;;;3.83;;
7128;SDS011;3606;52.930;8.644;2023-03-12T04:59:37;7.97;;;3.97;;
7128;SDS011;3606;52.930;8.644;2023-03-12T05:02:03;5.17;;;4.17;;
7128;SDS011;3606;52.930;8.644;2023-03-12T05:04:28;5.13;;;3.80;;
7128;SDS011;3606;52.930;8.644;2023-03-12T05:06:54;8.60;;;4.27;;
7128;SDS011;3606;52.930;8.644;2023-03-12T05:09:19;9.33;;;4.40;;
7128;SDS011;3606;52.930;8.644;2023-03-12T05:11:45;5.30;;;4.27;;
7128;SDS011;3606;52.930;8.644;2023-03-12T05:14:11;6.97;;;4.27;;
7128;SDS011;3606;52.930;8.644;2023-03-12T05:16:36;4.43;;;4.03;;
7128;SDS011;3606;52.930;8.644;2023-03-12T05:19:02;6.47;;;4.30;;
7128;SDS011;3606;52.930;8.644;2023-03-12T05:21:28;5.77;;;4.27;;
7128;SDS011;3606;52.930;8.644;2023-03-12T05:23:53;10.03;;;4.93;;
7128;SDS011;3606;52.930;8.644;2023-03-12T05:26:27;6.07;;;4.00;;
7128;SDS011;3606;52.930;8.644;2023-03-12T05:28:57;5.10;;;4.27;;
7128;SDS011;3606;52.930;8.644;2023-03-12T05:31:27;10.53;;;5.00;;
7128;SDS011;3606;52.930;8.644;2023-03-12T05:33:57;6.73;;;4.50;;
7128;SDS011;3606;52.930;8.644;2023-03-12T05:36:22;11.60;;;5.13;;
7128;SDS011;3606;52.930;8.644;2023-03-12T05:38:48;8.00;;;4.20;;
7128;SDS011;3606;52.930;8.644;2023-03-12T05:41:18;7.63;;;4.70;;
7128;SDS011;3606;52.930;8.644;2023-03-12T05:43:49;7.57;;;4.80;;
7128;SDS011;3606;52.930;8.644;2023-03-12T05:46:16;7.40;;;4.67;;
7128;SDS011;3606;52.930;8.644;2023-03-12T05:48:42;7.67;;;4.93;;
7128;SDS011;3606;52.930;8.644;2023-03-12T05:51:08;7.43;;;4.97;;
7128;SDS011;3606;52.930;8.644;2023-03-12T05:53:33;7.00;;;4.70;;
7128;SDS011;3606;52.930;8.644;2023-03-12T05:56:10;8.13;;;4.73;;
7128;SDS011;3606;52.930;8.644;2023-03-12T05:58:37;7.83;;;5.20;;
7128;SDS011;3606;52.930;8.644;2023-03-12T06:01:09;10.73;;;4.97;;
7128;SDS011;3606;52.930;8.644;2023-03-12T06:03:37;6.03;;;4.83;;
7128;SDS011;3606;52.930;8.644;2023-03-12T06:06:03;8.70;;;4.40;;
7128;SDS011;3606;52.930;8.644;2023-03-12T06:08:29;5.73;;;5.13;;
7128;SDS011;3606;52.930;8.644;2023-03-12T06:10:54;8.37;;;4.97;;
7128;SDS011;3606;52.930;8.644;2023-03-12T06:13:21;7.90;;;4.97;;
7128;SDS011;3606;52.930;8.644;2023-03-12T06:15:47;7.23;;;5.00;;
7128;SDS011;3606;52.930;8.644;2023-03-12T06:18:12;8.40;;;4.93;;
7128;SDS011;3606;52.930;8.644;2023-03-12T06:20:38;8.97;;;5.27;;
7128;SDS011;3606;52.930;8.644;2023-03-12T06:23:03;7.13;;;4.77;;
7128;SDS011;3606;52.930;8.644;2023-03-12T06:25:29;7.47;;;4.47;;
7128;SDS011;3606;52.930;8.644;2023-03-12T06:27:55;9.23;;;5.30;;
7128;SDS011;3606;52.930;8.644;2023-03-12T06:30:20;8.77;;;4.80;;
7128;SDS011;3606;52.930;8.644;2023-03-12T06:32:46;10.20;;;4.87;;
7128;SDS011;3606;52.930;8.644;2023-03-12T06:35:12;5.93;;;4.70;;
7128;SDS011;3606;52.930;8.644;2023-03-12T06:37:38;6.50;;;4.87;;
7128;SDS011;3606;52.930;8.644;2023-03-12T06:40:03;7.90;;;4.87;;
7128;SDS011;3606;52.930;8.644;2023-03-12T06:42:31;6.67;;;4.67;;
7128;SDS011;3606;52.930;8.644;2023-03-12T06:44:57;6.40;;;4.97;;
7128;SDS011;3606;52.930;8.644;2023-03-12T06:47:23;10.93;;;5.00;;
7128;SDS011;3606;52.930;8.644;2023-03-12T06:49:48;5.57;;;4.43;;
7128;SDS011;3606;52.930;8.644;2023-03-12T06:52:14;6.90;;;4.80;;
7128;SDS011;3606;52.930;8.644;2023-03-12T06:54:39;8.50;;;4.80;;
7128;SDS011;3606;52.930;8.644;2023-03-12T06:57:05;5.47;;;4.20;;
7128;SDS011;3606;52.930;8.644;2023-03-12T06:59:30;5.67;;;4.73;;
7128;SDS011;3606;52.930;8.644;2023-03-12T07:01:56;6.33;;;5.10;;
7128;SDS011;3606;52.930;8.644;2023-03-12T07:04:22;5.93;;;4.40;;
7128;SDS011;3606;52.930;8.644;2023-03-12T07:06:47;7.67;;;4.90;;
7128;SDS011;3606;52.930;8.644;2023-03-12T07:09:15;5.07;;;4.43;;
7128;SDS011;3606;52.930;8.644;2023-03-12T07:11:42;9.33;;;5.10;;
7128;SDS011;3606;52.930;8.644;2023-03-12T07:14:08;12.07;;;4.90;;
7128;SDS011;3606;52.930;8.644;2023-03-12T07:16:34;5.43;;;4.10;;
7128;SDS011;3606;52.930;8.644;2023-03-12T07:19:00;5.37;;;4.60;;
7128;SDS011;3606;52.930;8.644;2023-03-12T07:21:25;11.73;;;4.97;;
7128;SDS011;3606;52.930;8.644;2023-03-12T07:23:51;7.17;;;5.10;;
7128;SDS011;3606;52.930;8.644;2023-03-12T07:26:17;5.67;;;3.73;;
7128;SDS011;3606;52.930;8.644;2023-03-12T07:28:43;5.87;;;4.33;;
7128;SDS011;3606;52.930;8.644;2023-03-12T07:31:09;9.67;;;4.23;;
7128;SDS011;3606;52.930;8.644;2023-03-12T07:33:35;6.93;;;4.33;;
7128;SDS011;3606;52.930;8.644;2023-03-12T07:36:00;8.67;;;3.90;;
7128;SDS011;3606;52.930;8.644;2023-03-12T07:38:26;5.27;;;3.73;;
7128;SDS011;3606;52.930;8.644;2023-03-12T07:40:52;3.77;;;3.30;;
7128;SDS011;3606;52.930;8.644;2023-03-12T07:43:19;7.57;;;4.30;;
7128;SDS011;3606;52.930;8.644;2023-03-12T07:45:44;5.60;;;3.87;;
7128;SDS011;3606;52.930;8.644;2023-03-12T07:48:10;7.03;;;3.87;;
7128;SDS011;3606;52.930;8.644;2023-03-12T07:50:36;5.93;;;4.13;;
7128;SDS011;3606;52.930;8.644;2023-03-12T07:53:02;4.80;;;3.90;;
7128;SDS011;3606;52.930;8.644;2023-03-12T07:55:28;10.27;;;3.97;;
7128;SDS011;3606;52.930;8.644;2023-03-12T07:57:54;10.80;;;4.40;;
7128;SDS011;3606;52.930;8.644;2023-03-12T08:00:22;7.33;;;4.07;;
7128;SDS011;3606;52.930;8.644;2023-03-12T08:02:48;10.20;;;3.83;;
7128;SDS011;3606;52.930;8.644;2023-03-12T08:05:14;5.20;;;3.87;;
7128;SDS011;3606;52.930;8.644;2023-03-12T08:07:39;6.03;;;4.03;;
7128;SDS011;3606;52.930;8.644;2023-03-12T08:10:06;5.43;;;3.70;;
7128;SDS011;3606;52.930;8.644;2023-03-12T08:12:33;7.07;;;4.30;;
7128;SDS011;3606;52.930;8.644;2023-03-12T08:14:58;8.07;;;4.87;;
7128;SDS011;3606;52.930;8.644;2023-03-12T08:17:24;9.60;;;4.97;;
7128;SDS011;3606;52.930;8.644;2023-03-12T08:19:50;9.47;;;3.80;;
7128;SDS011;3606;52.930;8.644;2023-03-12T08:22:15;5.13;;;3.90;;
7128;SDS011;3606;52.930;8.644;2023-03-12T08:24:41;5.77;;;3.67;;
7128;SDS011;3606;52.930;8.644;2023-03-12T08:27:07;6.10;;;3.53;;
7128;SDS011;3606;52.930;8.644;2023-03-12T08:29:33;5.47;;;3.90;;
7128;SDS011;3606;52.930;8.644;2023-03-12T08:31:59;4.97;;;3.30;;
7128;SDS011;3606;52.930;8.644;2023-03-12T08:34:25;4.30;;;3.30;;
7128;SDS011;3606;52.930;8.644;2023-03-12T08:36:51;3.63;;;3.20;;
7128;SDS011;3606;52.930;8.644;2023-03-12T08:39:16;4.83;;;3.53;;
7128;SDS011;3606;52.930;8.644;2023-03-12T08:41:42;3.50;;;3.03;;
7128;SDS011;3606;52.930;8.644;2023-03-12T08:44:07;4.80;;;3.60;;
7128;SDS011;3606;52.930;8.644;2023-03-12T08:46:33;4.23;;;3.47;;
7128;SDS011;3606;52.930;8.644;2023-03-12T08:48:59;4.47;;;2.93;;
7128;SDS011;3606;52.930;8.644;2023-03-12T08:51:24;8.27;;;3.20;;
7128;SDS011;3606;52.930;8.644;2023-03-12T08:53:50;4.10;;;3.27;;
7128;SDS011;3606;52.930;8.644;2023-03-12T08:56:16;4.53;;;3.13;;
7128;SDS011;3606;52.930;8.644;2023-03-12T08:58:41;3.87;;;3.20;;
7128;SDS011;3606;52.930;8.644;2023-03-12T09:01:08;7.43;;;3.13;;
7128;SDS011;3606;52.930;8.644;2023-03-12T09:03:35;4.40;;;2.87;;
7128;SDS011;3606;52.930;8.644;2023-03-12T09:06:05;6.27;;;3.50;;
7128;SDS011;3606;52.930;8.644;2023-03-12T09:08:37;4.73;;;3.23;;
7128;SDS011;3606;52.930;8.644;2023-03-12T09:11:03;5.40;;;3.17;;
7128;SDS011;3606;52.930;8.644;2023-03-12T09:13:29;3.73;;;2.73;;
7128;SDS011;3606;52.930;8.644;2023-03-12T09:15:58;6.10;;;3.00;;
7128;SDS011;3606;52.930;8.644;2023-03-12T09:18:25;5.03;;;2.70;;
7128;SDS011;3606;52.930;8.644;2023-03-12T09:20:51;3.90;;;3.03;;
7128;SDS011;3606;52.930;8.644;2023-03-12T09:23:17;4.43;;;2.73;;
7128;SDS011;3606;52.930;8.644;2023-03-12T09:25:46;7.00;;;2.80;;
7128;SDS011;3606;52.930;8.644;2023-03-12T09:28:12;4.97;;;3.10;;
7128;SDS011;3606;52.930;8.644;2023-03-12T09:30:38;6.03;;;3.27;;
7128;SDS011;3606;52.930;8.644;2023-03-12T09:33:04;6.73;;;2.60;;
7128;SDS011;3606;52.930;8.644;2023-03-12T09:35:30;6.23;;;3.40;;
7128;SDS011;3606;52.930;8.644;2023-03-12T09:37:56;3.13;;;2.83;;
7128;SDS011;3606;52.930;8.644;2023-03-12T09:40:23;4.27;;;3.00;;
7128;SDS011;3606;52.930;8.644;2023-03-12T09:42:52;3.50;;;3.00;;
7128;SDS011;3606;52.930;8.644;2023-03-12T09:45:22;3.10;;;2.80;;
7128;SDS011;3606;52.930;8.644;2023-03-12T09:47:55;4.93;;;2.80;;
7128;SDS011;3606;52.930;8.644;2023-03-12T09:50:36;3.77;;;3.00;;
7128;SDS011;3606;52.930;8.644;2023-03-12T09:53:13;3.53;;;2.93;;
7128;SDS011;3606;52.930;8.644;2023-03-12T09:55:44;7.00;;;3.43;;
7128;SDS011;3606;52.930;8.644;2023-03-12T09:58:32;7.63;;;2.37;;
7128;SDS011;3606;52.930;8.644;2023-03-12T10:20:37;3.17;;;2.67;;
7128;SDS011;3606;52.930;8.644;2023-03-12T10:26:04;5.93;;;2.60;;
7128;SDS011;3606;52.930;8.644;2023-03-12T10:31:47;3.83;;;2.77;;
7128;SDS011;3606;52.930;8.644;2023-03-12T10:34:36;6.53;;;2.93;;
7128;SDS011;3606;52.930;8.644;2023-03-12T10:37:22;6.37;;;2.47;;
7128;SDS011;3606;52.930;8.644;2023-03-12T10:39:55;5.07;;;2.47;;
7128;SDS011;3606;52.930;8.644;2023-03-12T10:42:25;6.13;;;3.07;;
7128;SDS011;3606;52.930;8.644;2023-03-12T10:45:00;6.17;;;3.13;;
7128;SDS011;3606;52.930;8.644;2023-03-12T10:47:34;4.87;;;2.83;;
7128;SDS011;3606;52.930;8.644;2023-03-12T10:50:11;3.17;;;2.80;;
7128;SDS011;3606;52.930;8.644;2023-03-12T10:52:45;2.57;;;2.37;;
7128;SDS011;3606;52.930;8.644;2023-03-12T10:55:21;6.13;;;2.53;;
7128;SDS011;3606;52.930;8.644;2023-03-12T10:57:51;3.67;;;2.73;;
7128;SDS011;3606;52.930;8.644;2023-03-12T11:00:21;4.57;;;2.97;;
7128;SDS011;3606;52.930;8.644;2023-03-12T11:03:02;7.40;;;3.50;;
7128;SDS011;3606;52.930;8.644;2023-03-12T11:05:33;5.77;;;3.00;;
7128;SDS011;3606;52.930;8.644;2023-03-12T11:08:23;5.67;;;3.03;;
7128;SDS011;3606;52.930;8.644;2023-03-12T11:10:59;6.50;;;2.90;;
7128;SDS011;3606;52.930;8.644;2023-03-12T11:13:36;6.03;;;3.10;;
7128;SDS011;3606;52.930;8.644;2023-03-12T11:18:57;4.10;;;3.10;;
7128;SDS011;3606;52.930;8.644;2023-03-12T11:21:28;5.10;;;3.57;;
7128;SDS011;3606;52.930;8.644;2023-03-12T11:26:38;7.07;;;3.33;;
7128;SDS011;3606;52.930;8.644;2023-03-12T11:32:01;5.30;;;3.53;;
7128;SDS011;3606;52.930;8.644;2023-03-12T11:34:42;4.33;;;3.70;;
7128;SDS011;3606;52.930;8.644;2023-03-12T11:50:41;6.37;;;4.07;;
7128;SDS011;3606;52.930;8.644;2023-03-12T11:58:41;7.10;;;3.67;;
7128;SDS011;3606;52.930;8.644;2023-03-12T12:01:52;5.63;;;4.27;;
7128;SDS011;3606;52.930;8.644;2023-03-12T12:13:05;4.03;;;3.43;;
7128;SDS011;3606;52.930;8.644;2023-03-12T12:15:13;4.80;;;4.17;;
7128;SDS011;3606;52.930;8.644;2023-03-12T12:17:43;13.37;;;4.77;;
7128;SDS011;3606;52.930;8.644;2023-03-12T12:26:24;6.33;;;4.50;;
7128;SDS011;3606;52.930;8.644;2023-03-12T12:29:11;5.53;;;4.60;;
7128;SDS011;3606;52.930;8.644;2023-03-12T12:31:57;10.37;;;4.73;;
7128;SDS011;3606;52.930;8.644;2023-03-12T12:37:00;5.80;;;4.67;;
7128;SDS011;3606;52.930;8.644;2023-03-12T12:39:38;10.27;;;4.80;;
7128;SDS011;3606;52.930;8.644;2023-03-12T12:42:13;8.30;;;4.77;;
7128;SDS011;3606;52.930;8.644;2023-03-12T12:44:51;10.63;;;4.67;;
7128;SDS011;3606;52.930;8.644;2023-03-12T12:47:21;7.20;;;5.00;;
7128;SDS011;3606;52.930;8.644;2023-03-12T12:49:56;5.57;;;4.83;;
7128;SDS011;3606;52.930;8.644;2023-03-12T12:52:23;10.67;;;4.90;;
7128;SDS011;3606;52.930;8.644;2023-03-12T12:54:58;7.13;;;4.87;;
7128;SDS011;3606;52.930;8.644;2023-03-12T12:57:53;5.17;;;4.67;;
7128;SDS011;3606;52.930;8.644;2023-03-12T13:00:33;6.57;;;4.57;;
7128;SDS011;3606;52.930;8.644;2023-03-12T13:03:16;6.13;;;4.90;;
7128;SDS011;3606;52.930;8.644;2023-03-12T13:05:46;5.43;;;4.63;;
7128;SDS011;3606;52.930;8.644;2023-03-12T13:08:33;5.93;;;4.90;;
7128;SDS011;3606;52.930;8.644;2023-03-12T13:11:04;6.53;;;4.90;;
7128;SDS011;3606;52.930;8.644;2023-03-12T13:13:38;5.90;;;4.73;;
7128;SDS011;3606;52.930;8.644;2023-03-12T13:18:59;6.43;;;5.07;;
7128;SDS011;3606;52.930;8.644;2023-03-12T13:31:52;66.10;;;32.13;;
7128;SDS011;3606;52.930;8.644;2023-03-12T13:36:45;34.07;;;16.03;;
7128;SDS011;3606;52.930;8.644;2023-03-12T13:41:52;34.93;;;19.97;;
7128;SDS011;3606;52.930;8.644;2023-03-12T13:49:44;19.40;;;11.87;;
7128;SDS011;3606;52.930;8.644;2023-03-12T13:55:35;34.80;;;18.63;;
7128;SDS011;3606;52.930;8.644;2023-03-12T13:57:47;21.87;;;16.23;;
7128;SDS011;3606;52.930;8.644;2023-03-12T14:02:43;16.97;;;12.93;;
7128;SDS011;3606;52.930;8.644;2023-03-12T14:05:21;20.83;;;16.50;;
7128;SDS011;3606;52.930;8.644;2023-03-12T14:19:16;9.27;;;8.07;;
7128;SDS011;3606;52.930;8.644;2023-03-12T14:21:53;9.97;;;8.07;;
7128;SDS011;3606;52.930;8.644;2023-03-12T14:26:58;13.63;;;8.47;;
7128;SDS011;3606;52.930;8.644;2023-03-12T14:32:02;12.93;;;8.20;;
7128;SDS011;3606;52.930;8.644;2023-03-12T14:34:37;10.27;;;8.17;;
7128;SDS011;3606;52.930;8.644;2023-03-12T14:39:50;24.23;;;14.23;;
7128;SDS011;3606;52.930;8.644;2023-03-12T14:42:36;14.50;;;9.30;;
7128;SDS011;3606;52.930;8.644;2023-03-12T14:47:45;12.43;;;8.23;;
7128;SDS011;3606;52.930;8.644;2023-03-12T14:50:16;9.27;;;7.63;;
7128;SDS011;3606;52.930;8.644;2023-03-12T14:52:50;10.27;;;9.10;;
7128;SDS011;3606;52.930;8.644;2023-03-12T14:55:23;12.60;;;9.37;;
7128;SDS011;3606;52.930;8.644;2023-03-12T14:58:33;11.60;;;9.03;;
7128;SDS011;3606;52.930;8.644;2023-03-12T15:00:43;9.80;;;8.73;;
7128;SDS011;3606;52.930;8.644;2023-03-12T15:03:18;68.10;;;37.63;;
7128;SDS011;3606;52.930;8.644;2023-03-12T15:05:47;13.30;;;9.77;;
7128;SDS011;3606;52.930;8.644;2023-03-12T15:08:16;16.13;;;11.07;;
7128;SDS011;3606;52.930;8.644;2023-03-12T15:10:48;15.37;;;10.27;;
7128;SDS011;3606;52.930;8.644;2023-03-12T15:13:15;14.23;;;11.07;;
7128;SDS011;3606;52.930;8.644;2023-03-12T15:15:45;13.23;;;10.10;;
7128;SDS011;3606;52.930;8.644;2023-03-12T15:18:15;15.13;;;10.63;;
7128;SDS011;3606;52.930;8.644;2023-03-12T15:20:42;14.50;;;11.47;;
7128;SDS011;3606;52.930;8.644;2023-03-12T15:23:08;16.67;;;11.53;;
7128;SDS011;3606;52.930;8.644;2023-03-12T15:25:37;16.73;;;12.57;;
7128;SDS011;3606;52.930;8.644;2023-03-12T15:30:36;22.00;;;14.07;;
7128;SDS011;3606;52.930;8.644;2023-03-12T15:35:32;23.63;;;14.67;;
7128;SDS011;3606;52.930;8.644;2023-03-12T15:37:58;27.00;;;16.13;;
7128;SDS011;3606;52.930;8.644;2023-03-12T15:40:24;21.37;;;14.37;;
7128;SDS011;3606;52.930;8.644;2023-03-12T15:42:53;21.50;;;15.77;;
7128;SDS011;3606;52.930;8.644;2023-03-12T15:45:22;39.23;;;23.97;;
7128;SDS011;3606;52.930;8.644;2023-03-12T15:47:52;24.70;;;16.27;;
7128;SDS011;3606;52.930;8.644;2023-03-12T15:50:33;21.30;;;14.73;;
7128;SDS011;3606;52.930;8.644;2023-03-12T15:53:06;26.70;;;17.73;;
7128;SDS011;3606;52.930;8.644;2023-03-12T15:55:37;21.43;;;15.20;;
7128;SDS011;3606;52.930;8.644;2023-03-12T15:58:24;21.60;;;15.53;;
7128;SDS011;3606;52.930;8.644;2023-03-12T16:00:52;16.87;;;13.63;;
7128;SDS011;3606;52.930;8.644;2023-03-12T16:03:18;20.20;;;14.73;;
7128;SDS011;3606;52.930;8.644;2023-03-12T16:05:46;21.73;;;14.53;;
7128;SDS011;3606;52.930;8.644;2023-03-12T16:10:41;23.70;;;14.90;;
7128;SDS011;3606;52.930;8.644;2023-03-12T16:13:08;23.07;;;15.10;;
7128;SDS011;3606;52.930;8.644;2023-03-12T16:15:38;24.43;;;15.63;;
7128;SDS011;3606;52.930;8.644;2023-03-12T16:18:04;26.73;;;15.40;;
7128;SDS011;3606;52.930;8.644;2023-03-12T16:20:35;24.20;;;15.30;;
7128;SDS011;3606;52.930;8.644;2023-03-12T16:23:00;25.47;;;15.93;;
7128;SDS011;3606;52.930;8.644;2023-03-12T16:25:26;27.13;;;15.73;;
7128;SDS011;3606;52.930;8.644;2023-03-12T16:27:53;25.47;;;16.70;;
7128;SDS011;3606;52.930;8.644;2023-03-12T16:30:24;27.87;;;17.03;;
7128;SDS011;3606;52.930;8.644;2023-03-12T16:32:55;30.40;;;16.37;;
7128;SDS011;3606;52.930;8.644;2023-03-12T16:35:22;26.97;;;16.07;;
7128;SDS011;3606;52.930;8.644;2023-03-12T16:37:48;30.97;;;17.83;;
7128;SDS011;3606;52.930;8.644;2023-03-12T16:40:14;30.50;;;17.33;;
7128;SDS011;3606;52.930;8.644;2023-03-12T16:42:41;46.80;;;27.57;;
7128;SDS011;3606;52.930;8.644;2023-03-12T16:45:13;36.30;;;22.20;;
7128;SDS011;3606;52.930;8.644;2023-03-12T16:47:40;31.40;;;17.67;;
7128;SDS011;3606;52.930;8.644;2023-03-12T16:50:17;40.23;;;18.63;;
7128;SDS011;3606;52.930;8.644;2023-03-12T16:52:45;30.30;;;18.77;;
7128;SDS011;3606;52.930;8.644;2023-03-12T16:55:14;28.37;;;17.33;;
7128;SDS011;3606;52.930;8.644;2023-03-12T16:57:41;28.23;;;17.03;;
7128;SDS011;3606;52.930;8.644;2023-03-12T17:00:11;24.00;;;15.67;;
7128;SDS011;3606;52.930;8.644;2023-03-12T17:02:45;27.70;;;16.20;;
7128;SDS011;3606;52.930;8.644;2023-03-12T17:05:12;25.50;;;16.57;;
7128;SDS011;3606;52.930;8.644;2023-03-12T17:07:37;29.90;;;17.93;;
7128;SDS011;3606;52.930;8.644;2023-03-12T17:10:03;28.07;;;17.03;;
7128;SDS011;3606;52.930;8.644;2023-03-12T17:12:32;24.97;;;16.63;;
7128;SDS011;3606;52.930;8.644;2023-03-12T17:15:00;30.23;;;16.20;;
7128;SDS011;3606;52.930;8.644;2023-03-12T17:17:28;27.70;;;17.13;;
7128;SDS011;3606;52.930;8.644;2023-03-12T17:19:54;26.43;;;16.73;;
7128;SDS011;3606;52.930;8.644;2023-03-12T17:22:23;27.20;;;17.23;;
7128;SDS011;3606;52.930;8.644;2023-03-12T17:24:50;27.57;;;18.87;;
7128;SDS011;3606;52.930;8.644;2023-03-12T17:27:15;27.73;;;16.80;;
7128;SDS011;3606;52.930;8.644;2023-03-12T17:29:41;25.20;;;16.90;;
7128;SDS011;3606;52.930;8.644;2023-03-12T17:32:06;26.37;;;16.57;;
7128;SDS011;3606;52.930;8.644;2023-03-12T17:34:32;25.67;;;17.27;;
7128;SDS011;3606;52.930;8.644;2023-03-12T17:36:58;26.03;;;16.57;;